sensor_id;sensor_type;location;lat;lon;timestamp;temperature;humidity
36322;DHT22;23564;48.290;11.460;2022-10-31T00:02:18;9.90;1.00
36322;DHT22;23564;48.290;11.460;2022-10-31T00:04:43;9.90;1.00
36322;DHT22;23564;48.290;11.460;2022-10-31T00:07:09;9.90;1.00
36322;DHT22;23564;48.290;11.460;2022-10-31T00:09:34;9.90;1.00
36322;DHT22;23564;48.290;11.460;2022-10-31T00:12:00;9.90;1.00
36322;DHT22;23564;48.290;11.460;2022-10-31T00:14:25;9.90;1.00
36322;DHT22;23564;48.290;11.460;2022-10-31T00:16:51;9.80;1.00
36322;DHT22;23564;48.290;11.460;2022-10-31T00:19:17;9.80;1.00
36322;DHT22;23564;48.290;11.460;2022-10-31T00:21:42;9.80;1.00
36322;DHT22;23564;48.290;11.460;2022-10-31T00:24:08;9.80;1.00
36322;DHT22;23564;48.290;11.460;2022-10-31T00:26:33;9.80;1.00
36322;DHT22;23564;48.290;11.460;2022-10-31T00:28:59;9.70;1.00
36322;DHT22;23564;48.290;11.460;2022-10-31T00:31:27;9.70;1.00
36322;DHT22;23564;48.290;11.460;2022-10-31T00:33:53;9.70;1.00
36322;DHT22;23564;48.290;11.460;2022-10-31T00:36:19;9.80;1.00
36322;DHT22;23564;48.290;11.460;2022-10-31T00:38:46;9.80;1.00
36322;DHT22;23564;48.290;11.460;2022-10-31T00:41:14;9.80;1.00
36322;DHT22;23564;48.290;11.460;2022-10-31T00:43:40;9.80;1.00
36322;DHT22;23564;48.290;11.460;2022-10-31T00:46:05;9.70;1.00
36322;DHT22;23564;48.290;11.460;2022-10-31T00:48:31;9.70;1.00
36322;DHT22;23564;48.290;11.460;2022-10-31T00:50:57;9.60;1.00
36322;DHT22;23564;48.290;11.460;2022-10-31T00:53:22;9.60;1.00
36322;DHT22;23564;48.290;11.460;2022-10-31T00:55:48;9.60;1.00
36322;DHT22;23564;48.290;11.460;2022-10-31T00:58:14;9.60;1.00
36322;DHT22;23564;48.290;11.460;2022-10-31T01:00:39;9.60;1.00
36322;DHT22;23564;48.290;11.460;2022-10-31T01:03:05;9.50;1.00
36322;DHT22;23564;48.290;11.460;2022-10-31T01:05:31;9.50;1.00
36322;DHT22;23564;48.290;11.460;2022-10-31T01:07:56;9.50;1.00
36322;DHT22;23564;48.290;11.460;2022-10-31T01:10:22;9.40;1.00
36322;DHT22;23564;48.290;11.460;2022-10-31T01:12:48;9.40;1.00
36322;DHT22;23564;48.290;11.460;2022-10-31T01:15:20;9.40;1.00
36322;DHT22;23564;48.290;11.460;2022-10-31T01:17:46;9.40;1.00
36322;DHT22;23564;48.290;11.460;2022-10-31T01:20:13;9.40;1.00
36322;DHT22;23564;48.290;11.460;2022-10-31T01:22:39;9.40;1.00
36322;DHT22;23564;48.290;11.460;2022-10-31T01:25:05;9.40;1.00
36322;DHT22;23564;48.290;11.460;2022-10-31T01:27:31;9.40;1.00
36322;DHT22;23564;48.290;11.460;2022-10-31T01:29:57;9.40;1.00
36322;DHT22;23564;48.290;11.460;2022-10-31T01:32:22;9.40;1.00
36322;DHT22;23564;48.290;11.460;2022-10-31T01:34:48;9.40;1.00
36322;DHT22;23564;48.290;11.460;2022-10-31T01:37:14;9.40;1.00
36322;DHT22;23564;48.290;11.460;2022-10-31T01:39:39;9.50;1.00
36322;DHT22;23564;48.290;11.460;2022-10-31T01:42:05;9.40;1.00
36322;DHT22;23564;48.290;11.460;2022-10-31T01:49:34;9.40;1.00
36322;DHT22;23564;48.290;11.460;2022-10-31T01:52:02;9.40;1.00
36322;DHT22;23564;48.290;11.460;2022-10-31T01:54:34;9.40;1.00
36322;DHT22;23564;48.290;11.460;2022-10-31T01:57:02;9.40;1.00
36322;DHT22;23564;48.290;11.460;2022-10-31T01:59:31;9.40;1.00
36322;DHT22;23564;48.290;11.460;2022-10-31T02:01:59;9.40;1.00
36322;DHT22;23564;48.290;11.460;2022-10-31T02:04:25;9.30;1.00
36322;DHT22;23564;48.290;11.460;2022-10-31T02:06:56;9.30;1.00
36322;DHT22;23564;48.290;11.460;2022-10-31T02:09:23;9.30;1.00
36322;DHT22;23564;48.290;11.460;2022-10-31T02:11:55;9.30;1.00
36322;DHT22;23564;48.290;11.460;2022-10-31T02:14:22;9.20;1.00
36322;DHT22;23564;48.290;11.460;2022-10-31T02:16:49;9.20;1.00
36322;DHT22;23564;48.290;11.460;2022-10-31T02:19:21;9.20;1.00
36322;DHT22;23564;48.290;11.460;2022-10-31T02:21:58;9.20;1.00
36322;DHT22;23564;48.290;11.460;2022-10-31T02:27:49;9.10;1.00
36322;DHT22;23564;48.290;11.460;2022-10-31T02:30:22;9.10;1.00
36322;DHT22;23564;48.290;11.460;2022-10-31T02:33:25;9.10;1.00
36322;DHT22;23564;48.290;11.460;2022-10-31T02:41:48;9.10;1.00
36322;DHT22;23564;48.290;11.460;2022-10-31T02:44:28;9.10;1.00
36322;DHT22;23564;48.290;11.460;2022-10-31T02:47:32;9.10;1.00
36322;DHT22;23564;48.290;11.460;2022-10-31T02:52:34;9.00;1.00
36322;DHT22;23564;48.290;11.460;2022-10-31T02:58:12;9.00;1.00
36322;DHT22;23564;48.290;11.460;2022-10-31T03:03:12;9.00;1.00
36322;DHT22;23564;48.290;11.460;2022-10-31T03:06:13;8.90;1.00
36322;DHT22;23564;48.290;11.460;2022-10-31T03:08:50;8.90;1.00
36322;DHT22;23564;48.290;11.460;2022-10-31T03:11:23;8.90;1.00
36322;DHT22;23564;48.290;11.460;2022-10-31T03:13:59;8.90;1.00
36322;DHT22;23564;48.290;11.460;2022-10-31T03:16:47;8.80;1.00
36322;DHT22;23564;48.290;11.460;2022-10-31T03:21:54;8.80;1.00
36322;DHT22;23564;48.290;11.460;2022-10-31T03:24:23;8.80;1.00
36322;DHT22;23564;48.290;11.460;2022-10-31T03:26:52;8.70;1.00
36322;DHT22;23564;48.290;11.460;2022-10-31T03:29:21;8.80;1.00
36322;DHT22;23564;48.290;11.460;2022-10-31T03:31:53;8.80;1.00
36322;DHT22;23564;48.290;11.460;2022-10-31T03:34:20;8.80;1.00
36322;DHT22;23564;48.290;11.460;2022-10-31T03:36:50;8.80;1.00
36322;DHT22;23564;48.290;11.460;2022-10-31T03:39:18;8.80;1.00
36322;DHT22;23564;48.290;11.460;2022-10-31T03:41:56;8.70;1.00
36322;DHT22;23564;48.290;11.460;2022-10-31T03:44:24;8.70;1.00
36322;DHT22;23564;48.290;11.460;2022-10-31T03:46:52;8.70;1.00
36322;DHT22;23564;48.290;11.460;2022-10-31T03:49:18;8.60;1.00
36322;DHT22;23564;48.290;11.460;2022-10-31T03:51:58;8.60;1.00
36322;DHT22;23564;48.290;11.460;2022-10-31T03:54:34;8.60;1.00
36322;DHT22;23564;48.290;11.460;2022-10-31T04:00:04;8.60;1.00
36322;DHT22;23564;48.290;11.460;2022-10-31T04:02:33;8.60;1.00
36322;DHT22;23564;48.290;11.460;2022-10-31T04:05:00;8.60;1.00
36322;DHT22;23564;48.290;11.460;2022-10-31T04:07:30;8.60;1.00
36322;DHT22;23564;48.290;11.460;2022-10-31T04:09:58;8.60;1.00
36322;DHT22;23564;48.290;11.460;2022-10-31T04:12:27;8.50;1.00
36322;DHT22;23564;48.290;11.460;2022-10-31T04:14:54;8.50;1.00
36322;DHT22;23564;48.290;11.460;2022-10-31T04:17:23;8.50;1.00
36322;DHT22;23564;48.290;11.460;2022-10-31T04:19:50;8.50;1.00
36322;DHT22;23564;48.290;11.460;2022-10-31T04:22:16;8.40;1.00
36322;DHT22;23564;48.290;11.460;2022-10-31T04:24:41;8.40;1.00
36322;DHT22;23564;48.290;11.460;2022-10-31T04:27:07;8.40;1.00
36322;DHT22;23564;48.290;11.460;2022-10-31T04:29:33;8.40;1.00
36322;DHT22;23564;48.290;11.460;2022-10-31T04:31:58;8.50;1.00
36322;DHT22;23564;48.290;11.460;2022-10-31T04:34:24;8.50;1.00
36322;DHT22;23564;48.290;11.460;2022-10-31T04:36:49;8.50;1.00
36322;DHT22;23564;48.290;11.460;2022-10-31T04:39:15;8.50;1.00
36322;DHT22;23564;48.290;11.460;2022-10-31T04:41:40;8.40;1.00
36322;DHT22;23564;48.290;11.460;2022-10-31T04:44:06;8.40;1.00
36322;DHT22;23564;48.290;11.460;2022-10-31T04:46:31;8.40;1.00
36322;DHT22;23564;48.290;11.460;2022-10-31T04:48:57;8.40;1.00
36322;DHT22;23564;48.290;11.460;2022-10-31T04:51:22;8.40;1.00
36322;DHT22;23564;48.290;11.460;2022-10-31T04:53:48;8.30;1.00
36322;DHT22;23564;48.290;11.460;2022-10-31T04:56:14;8.30;1.00
36322;DHT22;23564;48.290;11.460;2022-10-31T04:58:40;8.30;1.00
36322;DHT22;23564;48.290;11.460;2022-10-31T05:01:05;8.30;1.00
36322;DHT22;23564;48.290;11.460;2022-10-31T05:03:31;8.30;1.00
36322;DHT22;23564;48.290;11.460;2022-10-31T05:05:56;8.30;1.00
36322;DHT22;23564;48.290;11.460;2022-10-31T05:08:22;8.30;1.00
36322;DHT22;23564;48.290;11.460;2022-10-31T05:10:47;8.30;1.00
36322;DHT22;23564;48.290;11.460;2022-10-31T05:13:13;8.30;1.00
36322;DHT22;23564;48.290;11.460;2022-10-31T05:15:40;8.20;1.00
36322;DHT22;23564;48.290;11.460;2022-10-31T05:18:05;8.20;1.00
36322;DHT22;23564;48.290;11.460;2022-10-31T05:20:31;8.20;1.00
36322;DHT22;23564;48.290;11.460;2022-10-31T05:22:58;8.20;1.00
36322;DHT22;23564;48.290;11.460;2022-10-31T05:25:26;8.20;1.00
36322;DHT22;23564;48.290;11.460;2022-10-31T05:27:53;8.20;1.00
36322;DHT22;23564;48.290;11.460;2022-10-31T05:30:22;8.10;1.00
36322;DHT22;23564;48.290;11.460;2022-10-31T05:32:49;8.10;1.00
36322;DHT22;23564;48.290;11.460;2022-10-31T05:35:18;8.10;1.00
36322;DHT22;23564;48.290;11.460;2022-10-31T05:37:44;8.10;1.00
36322;DHT22;23564;48.290;11.460;2022-10-31T05:40:11;8.10;1.00
36322;DHT22;23564;48.290;11.460;2022-10-31T05:42:42;8.10;1.00
36322;DHT22;23564;48.290;11.460;2022-10-31T05:45:13;8.10;1.00
36322;DHT22;23564;48.290;11.460;2022-10-31T05:47:39;8.00;1.00
36322;DHT22;23564;48.290;11.460;2022-10-31T05:50:06;8.00;1.00
36322;DHT22;23564;48.290;11.460;2022-10-31T05:52:32;8.00;1.00
36322;DHT22;23564;48.290;11.460;2022-10-31T05:54:58;8.00;1.00
36322;DHT22;23564;48.290;11.460;2022-10-31T05:57:24;8.00;1.00
36322;DHT22;23564;48.290;11.460;2022-10-31T05:59:49;8.00;1.00
36322;DHT22;23564;48.290;11.460;2022-10-31T06:02:18;8.00;1.00
36322;DHT22;23564;48.290;11.460;2022-10-31T06:04:44;8.00;1.00
36322;DHT22;23564;48.290;11.460;2022-10-31T06:07:09;8.00;1.00
36322;DHT22;23564;48.290;11.460;2022-10-31T06:09:35;8.00;1.00
36322;DHT22;23564;48.290;11.460;2022-10-31T06:12:00;8.00;1.00
36322;DHT22;23564;48.290;11.460;2022-10-31T06:14:26;8.00;1.00
36322;DHT22;23564;48.290;11.460;2022-10-31T06:16:51;8.00;1.00
36322;DHT22;23564;48.290;11.460;2022-10-31T06:19:17;8.00;1.00
36322;DHT22;23564;48.290;11.460;2022-10-31T06:21:42;8.00;1.00
36322;DHT22;23564;48.290;11.460;2022-10-31T06:24:08;8.00;1.00
36322;DHT22;23564;48.290;11.460;2022-10-31T06:26:34;8.10;1.00
36322;DHT22;23564;48.290;11.460;2022-10-31T06:28:59;8.10;1.00
36322;DHT22;23564;48.290;11.460;2022-10-31T06:31:25;8.20;1.00
36322;DHT22;23564;48.290;11.460;2022-10-31T06:33:50;8.20;1.00
36322;DHT22;23564;48.290;11.460;2022-10-31T06:36:16;8.30;1.00
36322;DHT22;23564;48.290;11.460;2022-10-31T06:38:41;8.40;1.00
36322;DHT22;23564;48.290;11.460;2022-10-31T06:41:07;8.60;1.00
36322;DHT22;23564;48.290;11.460;2022-10-31T06:43:32;8.70;1.00
36322;DHT22;23564;48.290;11.460;2022-10-31T06:46:02;8.80;1.00
36322;DHT22;23564;48.290;11.460;2022-10-31T06:48:28;8.90;1.00
36322;DHT22;23564;48.290;11.460;2022-10-31T06:50:56;9.00;1.00
36322;DHT22;23564;48.290;11.460;2022-10-31T06:53:22;9.10;1.00
36322;DHT22;23564;48.290;11.460;2022-10-31T06:55:47;9.20;1.00
36322;DHT22;23564;48.290;11.460;2022-10-31T06:58:13;9.30;1.00
36322;DHT22;23564;48.290;11.460;2022-10-31T07:00:38;9.40;1.00
36322;DHT22;23564;48.290;11.460;2022-10-31T07:03:06;9.50;1.00
36322;DHT22;23564;48.290;11.460;2022-10-31T07:05:32;9.60;1.00
36322;DHT22;23564;48.290;11.460;2022-10-31T07:08:04;9.70;1.00
36322;DHT22;23564;48.290;11.460;2022-10-31T07:10:32;9.80;1.00
36322;DHT22;23564;48.290;11.460;2022-10-31T07:13:01;9.90;1.00
36322;DHT22;23564;48.290;11.460;2022-10-31T07:15:29;10.00;1.00
36322;DHT22;23564;48.290;11.460;2022-10-31T07:18:03;10.00;1.00
36322;DHT22;23564;48.290;11.460;2022-10-31T07:20:29;10.20;1.00
36322;DHT22;23564;48.290;11.460;2022-10-31T07:22:55;10.20;1.00
36322;DHT22;23564;48.290;11.460;2022-10-31T07:25:21;10.30;1.00
36322;DHT22;23564;48.290;11.460;2022-10-31T07:27:47;10.30;1.00
36322;DHT22;23564;48.290;11.460;2022-10-31T07:30:13;10.30;1.00
36322;DHT22;23564;48.290;11.460;2022-10-31T07:32:43;10.40;1.00
36322;DHT22;23564;48.290;11.460;2022-10-31T07:35:11;10.30;1.00
36322;DHT22;23564;48.290;11.460;2022-10-31T07:37:37;10.40;1.00
36322;DHT22;23564;48.290;11.460;2022-10-31T07:40:04;10.40;1.00
36322;DHT22;23564;48.290;11.460;2022-10-31T07:42:37;10.50;1.00
36322;DHT22;23564;48.290;11.460;2022-10-31T07:45:05;10.50;1.00
36322;DHT22;23564;48.290;11.460;2022-10-31T07:47:41;10.50;1.00
36322;DHT22;23564;48.290;11.460;2022-10-31T07:50:08;10.60;1.00
36322;DHT22;23564;48.290;11.460;2022-10-31T07:52:34;10.60;1.00
36322;DHT22;23564;48.290;11.460;2022-10-31T07:55:00;10.60;1.00
36322;DHT22;23564;48.290;11.460;2022-10-31T07:57:25;10.60;1.00
36322;DHT22;23564;48.290;11.460;2022-10-31T07:59:51;10.70;1.00
36322;DHT22;23564;48.290;11.460;2022-10-31T08:02:17;10.70;1.00
36322;DHT22;23564;48.290;11.460;2022-10-31T08:04:42;10.80;1.00
36322;DHT22;23564;48.290;11.460;2022-10-31T08:07:08;10.70;1.00
36322;DHT22;23564;48.290;11.460;2022-10-31T08:09:33;10.80;1.00
36322;DHT22;23564;48.290;11.460;2022-10-31T08:11:59;10.80;1.00
36322;DHT22;23564;48.290;11.460;2022-10-31T08:14:24;10.80;1.00
36322;DHT22;23564;48.290;11.460;2022-10-31T08:16:51;10.80;1.00
36322;DHT22;23564;48.290;11.460;2022-10-31T08:19:17;10.90;1.00
36322;DHT22;23564;48.290;11.460;2022-10-31T08:21:42;10.90;1.00
36322;DHT22;23564;48.290;11.460;2022-10-31T08:24:08;11.00;1.00
36322;DHT22;23564;48.290;11.460;2022-10-31T08:26:33;11.00;1.00
36322;DHT22;23564;48.290;11.460;2022-10-31T08:29:00;11.10;1.00
36322;DHT22;23564;48.290;11.460;2022-10-31T08:31:27;11.10;1.00
36322;DHT22;23564;48.290;11.460;2022-10-31T08:33:53;11.20;1.00
36322;DHT22;23564;48.290;11.460;2022-10-31T08:36:20;11.20;1.00
36322;DHT22;23564;48.290;11.460;2022-10-31T08:38:46;11.30;1.00
36322;DHT22;23564;48.290;11.460;2022-10-31T08:41:12;11.40;1.00
36322;DHT22;23564;48.290;11.460;2022-10-31T08:43:38;11.50;1.00
36322;DHT22;23564;48.290;11.460;2022-10-31T08:46:03;11.60;1.00
36322;DHT22;23564;48.290;11.460;2022-10-31T08:48:29;11.60;1.00
36322;DHT22;23564;48.290;11.460;2022-10-31T08:50:57;11.60;1.00
36322;DHT22;23564;48.290;11.460;2022-10-31T08:53:23;11.70;1.00
36322;DHT22;23564;48.290;11.460;2022-10-31T08:55:49;11.80;1.00
36322;DHT22;23564;48.290;11.460;2022-10-31T08:58:19;11.80;1.00
36322;DHT22;23564;48.290;11.460;2022-10-31T09:00:46;11.90;1.00
36322;DHT22;23564;48.290;11.460;2022-10-31T09:03:18;12.00;1.00
36322;DHT22;23564;48.290;11.460;2022-10-31T09:05:44;12.10;1.00
36322;DHT22;23564;48.290;11.460;2022-10-31T09:08:11;12.20;1.00
36322;DHT22;23564;48.290;11.460;2022-10-31T09:10:37;12.30;1.00
36322;DHT22;23564;48.290;11.460;2022-10-31T09:13:10;12.30;1.00
36322;DHT22;23564;48.290;11.460;2022-10-31T09:15:39;12.40;1.00
36322;DHT22;23564;48.290;11.460;2022-10-31T09:18:06;12.50;1.00
36322;DHT22;23564;48.290;11.460;2022-10-31T09:20:34;12.50;1.00
36322;DHT22;23564;48.290;11.460;2022-10-31T09:23:02;12.60;1.00
36322;DHT22;23564;48.290;11.460;2022-10-31T09:25:28;12.70;1.00
36322;DHT22;23564;48.290;11.460;2022-10-31T09:27:58;12.70;1.00
36322;DHT22;23564;48.290;11.460;2022-10-31T09:30:24;12.80;1.00
36322;DHT22;23564;48.290;11.460;2022-10-31T09:32:58;12.90;1.00
36322;DHT22;23564;48.290;11.460;2022-10-31T09:35:24;12.90;1.00
36322;DHT22;23564;48.290;11.460;2022-10-31T09:38:00;13.00;1.00
36322;DHT22;23564;48.290;11.460;2022-10-31T09:40:47;13.10;1.00
36322;DHT22;23564;48.290;11.460;2022-10-31T09:49:36;13.30;1.00
36322;DHT22;23564;48.290;11.460;2022-10-31T09:52:30;13.40;1.00
36322;DHT22;23564;48.290;11.460;2022-10-31T09:55:16;13.40;1.00
36322;DHT22;23564;48.290;11.460;2022-10-31T09:57:44;13.60;1.00
36322;DHT22;23564;48.290;11.460;2022-10-31T10:00:19;13.60;1.00
36322;DHT22;23564;48.290;11.460;2022-10-31T10:05:37;13.80;1.00
36322;DHT22;23564;48.290;11.460;2022-10-31T10:08:21;13.80;1.00
36322;DHT22;23564;48.290;11.460;2022-10-31T10:11:08;13.90;1.00
36322;DHT22;23564;48.290;11.460;2022-10-31T10:19:31;14.10;1.00
36322;DHT22;23564;48.290;11.460;2022-10-31T10:27:34;14.30;1.00
36322;DHT22;23564;48.290;11.460;2022-10-31T10:30:11;14.40;1.00
36322;DHT22;23564;48.290;11.460;2022-10-31T10:32:51;14.40;1.00
36322;DHT22;23564;48.290;11.460;2022-10-31T10:37:52;14.60;1.00
36322;DHT22;23564;48.290;11.460;2022-10-31T10:40:25;14.70;1.00
36322;DHT22;23564;48.290;11.460;2022-10-31T10:43:12;14.80;1.00
36322;DHT22;23564;48.290;11.460;2022-10-31T10:45:50;14.90;1.00
36322;DHT22;23564;48.290;11.460;2022-10-31T10:51:39;15.10;1.00
36322;DHT22;23564;48.290;11.460;2022-10-31T10:59:40;15.30;1.00
36322;DHT22;23564;48.290;11.460;2022-10-31T11:02:25;15.40;1.00
36322;DHT22;23564;48.290;11.460;2022-10-31T11:04:55;15.60;99.90
36322;DHT22;23564;48.290;11.460;2022-10-31T11:07:22;15.70;99.90
36322;DHT22;23564;48.290;11.460;2022-10-31T11:09:47;15.80;99.90
36322;DHT22;23564;48.290;11.460;2022-10-31T11:12:21;15.90;99.90
36322;DHT22;23564;48.290;11.460;2022-10-31T11:14:53;16.10;99.90
36322;DHT22;23564;48.290;11.460;2022-10-31T11:17:39;16.20;99.90
36322;DHT22;23564;48.290;11.460;2022-10-31T11:20:31;16.30;99.90
36322;DHT22;23564;48.290;11.460;2022-10-31T11:23:00;16.30;99.90
36322;DHT22;23564;48.290;11.460;2022-10-31T11:25:27;16.30;99.90
36322;DHT22;23564;48.290;11.460;2022-10-31T11:28:08;16.30;99.90
36322;DHT22;23564;48.290;11.460;2022-10-31T11:31:05;16.40;99.90
36322;DHT22;23564;48.290;11.460;2022-10-31T11:33:33;16.50;99.90
36322;DHT22;23564;48.290;11.460;2022-10-31T11:36:02;16.60;99.90
36322;DHT22;23564;48.290;11.460;2022-10-31T11:38:40;16.60;1.00
36322;DHT22;23564;48.290;11.460;2022-10-31T11:41:16;16.70;38.90
36322;DHT22;23564;48.290;11.460;2022-10-31T11:43:57;16.70;95.20
36322;DHT22;23564;48.290;11.460;2022-10-31T11:49:00;16.90;1.00
36322;DHT22;23564;48.290;11.460;2022-10-31T11:51:33;16.90;99.90
36322;DHT22;23564;48.290;11.460;2022-10-31T11:54:01;16.90;99.90
36322;DHT22;23564;48.290;11.460;2022-10-31T11:56:37;17.00;99.90
36322;DHT22;23564;48.290;11.460;2022-10-31T11:59:05;17.10;99.90
36322;DHT22;23564;48.290;11.460;2022-10-31T12:01:32;17.10;99.90
36322;DHT22;23564;48.290;11.460;2022-10-31T12:04:06;17.10;99.90
36322;DHT22;23564;48.290;11.460;2022-10-31T12:06:37;17.00;99.90
36322;DHT22;23564;48.290;11.460;2022-10-31T12:15:00;17.10;3.70
36322;DHT22;23564;48.290;11.460;2022-10-31T12:17:43;17.00;96.70
36322;DHT22;23564;48.290;11.460;2022-10-31T12:23:38;16.90;1.00
36322;DHT22;23564;48.290;11.460;2022-10-31T12:29:34;16.60;99.90
36322;DHT22;23564;48.290;11.460;2022-10-31T12:32:15;16.60;99.90
36322;DHT22;23564;48.290;11.460;2022-10-31T12:35:43;16.70;99.90
36322;DHT22;23564;48.290;11.460;2022-10-31T12:44:12;16.70;15.20
36322;DHT22;23564;48.290;11.460;2022-10-31T12:55:09;16.80;31.60
36322;DHT22;23564;48.290;11.460;2022-10-31T12:57:35;16.80;65.90
36322;DHT22;23564;48.290;11.460;2022-10-31T13:00:18;17.00;1.00
36322;DHT22;23564;48.290;11.460;2022-10-31T13:03:28;17.10;1.00
36322;DHT22;23564;48.290;11.460;2022-10-31T13:05:54;17.20;99.90
36322;DHT22;23564;48.290;11.460;2022-10-31T13:08:28;17.20;99.90
36322;DHT22;23564;48.290;11.460;2022-10-31T13:11:12;17.30;99.90
36322;DHT22;23564;48.290;11.460;2022-10-31T13:14:07;17.30;99.90
36322;DHT22;23564;48.290;11.460;2022-10-31T13:16:41;17.30;99.90
36322;DHT22;23564;48.290;11.460;2022-10-31T13:19:21;17.30;99.90
36322;DHT22;23564;48.290;11.460;2022-10-31T13:22:05;17.10;99.90
36322;DHT22;23564;48.290;11.460;2022-10-31T13:24:36;16.90;99.90
36322;DHT22;23564;48.290;11.460;2022-10-31T13:27:09;16.80;1.00
36322;DHT22;23564;48.290;11.460;2022-10-31T13:29:38;16.80;1.00
36322;DHT22;23564;48.290;11.460;2022-10-31T13:32:05;16.70;1.00
36322;DHT22;23564;48.290;11.460;2022-10-31T13:34:40;16.60;80.50
36322;DHT22;23564;48.290;11.460;2022-10-31T13:37:36;16.50;99.90
36322;DHT22;23564;48.290;11.460;2022-10-31T13:40:20;16.40;99.90
36322;DHT22;23564;48.290;11.460;2022-10-31T13:45:31;16.30;99.90
36322;DHT22;23564;48.290;11.460;2022-10-31T13:48:01;16.20;99.90
36322;DHT22;23564;48.290;11.460;2022-10-31T13:50:31;16.20;99.90
36322;DHT22;23564;48.290;11.460;2022-10-31T13:53:35;16.20;99.90
36322;DHT22;23564;48.290;11.460;2022-10-31T13:56:18;16.20;99.90
36322;DHT22;23564;48.290;11.460;2022-10-31T14:01:34;16.10;99.90
36322;DHT22;23564;48.290;11.460;2022-10-31T14:04:07;16.10;99.90
36322;DHT22;23564;48.290;11.460;2022-10-31T14:06:49;16.10;99.90
36322;DHT22;23564;48.290;11.460;2022-10-31T14:09:38;16.10;99.90
36322;DHT22;23564;48.290;11.460;2022-10-31T14:12:22;16.10;99.90
36322;DHT22;23564;48.290;11.460;2022-10-31T14:14:51;16.20;99.90
36322;DHT22;23564;48.290;11.460;2022-10-31T14:17:22;16.20;99.90
36322;DHT22;23564;48.290;11.460;2022-10-31T14:20:21;16.20;99.90
36322;DHT22;23564;48.290;11.460;2022-10-31T14:22:47;16.30;99.90
36322;DHT22;23564;48.290;11.460;2022-10-31T14:27:51;16.30;99.90
36322;DHT22;23564;48.290;11.460;2022-10-31T14:30:20;16.30;99.90
36322;DHT22;23564;48.290;11.460;2022-10-31T14:33:01;16.20;99.90
36322;DHT22;23564;48.290;11.460;2022-10-31T14:38:37;16.20;99.90
36322;DHT22;23564;48.290;11.460;2022-10-31T14:43:54;16.10;99.90
36322;DHT22;23564;48.290;11.460;2022-10-31T14:49:50;16.10;99.90
36322;DHT22;23564;48.290;11.460;2022-10-31T14:52:20;16.00;99.90
36322;DHT22;23564;48.290;11.460;2022-10-31T14:54:53;15.90;99.90
36322;DHT22;23564;48.290;11.460;2022-10-31T14:57:26;15.90;99.90
36322;DHT22;23564;48.290;11.460;2022-10-31T14:59:59;15.80;99.90
36322;DHT22;23564;48.290;11.460;2022-10-31T15:02:34;15.80;1.00
36322;DHT22;23564;48.290;11.460;2022-10-31T15:05:07;15.70;1.00
36322;DHT22;23564;48.290;11.460;2022-10-31T15:07:33;15.70;1.00
36322;DHT22;23564;48.290;11.460;2022-10-31T15:10:05;15.60;1.00
36322;DHT22;23564;48.290;11.460;2022-10-31T15:12:33;15.60;1.00
36322;DHT22;23564;48.290;11.460;2022-10-31T15:15:19;15.60;1.00
36322;DHT22;23564;48.290;11.460;2022-10-31T15:17:49;15.60;1.00
36322;DHT22;23564;48.290;11.460;2022-10-31T15:20:25;15.50;1.00
36322;DHT22;23564;48.290;11.460;2022-10-31T15:22:51;15.50;1.00
36322;DHT22;23564;48.290;11.460;2022-10-31T15:25:23;15.50;1.00
36322;DHT22;23564;48.290;11.460;2022-10-31T15:27:50;15.50;1.00
36322;DHT22;23564;48.290;11.460;2022-10-31T15:30:25;15.40;1.00
36322;DHT22;23564;48.290;11.460;2022-10-31T15:32:51;15.40;1.00
36322;DHT22;23564;48.290;11.460;2022-10-31T15:35:25;15.40;1.00
36322;DHT22;23564;48.290;11.460;2022-10-31T15:37:52;15.30;1.00
36322;DHT22;23564;48.290;11.460;2022-10-31T15:40:19;15.30;1.00
36322;DHT22;23564;48.290;11.460;2022-10-31T15:43:00;15.30;1.00
36322;DHT22;23564;48.290;11.460;2022-10-31T15:45:28;15.20;1.00
36322;DHT22;23564;48.290;11.460;2022-10-31T15:48:02;15.10;1.00
36322;DHT22;23564;48.290;11.460;2022-10-31T15:50:34;15.10;1.00
36322;DHT22;23564;48.290;11.460;2022-10-31T15:53:01;15.10;1.00
36322;DHT22;23564;48.290;11.460;2022-10-31T15:55:29;15.00;1.00
36322;DHT22;23564;48.290;11.460;2022-10-31T15:58:00;14.90;1.00
36322;DHT22;23564;48.290;11.460;2022-10-31T16:00:30;14.90;1.00
36322;DHT22;23564;48.290;11.460;2022-10-31T16:05:44;14.70;1.00
36322;DHT22;23564;48.290;11.460;2022-10-31T16:11:15;14.50;1.00
36322;DHT22;23564;48.290;11.460;2022-10-31T16:14:15;14.40;1.00
36322;DHT22;23564;48.290;11.460;2022-10-31T16:16:50;14.30;1.00
36322;DHT22;23564;48.290;11.460;2022-10-31T16:21:52;14.00;1.00
36322;DHT22;23564;48.290;11.460;2022-10-31T16:24:27;14.00;1.00
36322;DHT22;23564;48.290;11.460;2022-10-31T16:26:59;13.90;1.00
36322;DHT22;23564;48.290;11.460;2022-10-31T16:29:47;13.80;1.00
36322;DHT22;23564;48.290;11.460;2022-10-31T16:37:33;13.50;1.00
36322;DHT22;23564;48.290;11.460;2022-10-31T16:39:59;13.40;1.00
36322;DHT22;23564;48.290;11.460;2022-10-31T16:42:24;13.30;1.00
36322;DHT22;23564;48.290;11.460;2022-10-31T16:44:51;13.30;1.00
36322;DHT22;23564;48.290;11.460;2022-10-31T16:47:17;13.20;1.00
36322;DHT22;23564;48.290;11.460;2022-10-31T16:49:43;13.10;1.00
36322;DHT22;23564;48.290;11.460;2022-10-31T16:52:11;13.10;1.00
36322;DHT22;23564;48.290;11.460;2022-10-31T16:54:37;13.00;1.00
36322;DHT22;23564;48.290;11.460;2022-10-31T16:57:04;13.00;1.00
36322;DHT22;23564;48.290;11.460;2022-10-31T16:59:30;13.00;1.00
36322;DHT22;23564;48.290;11.460;2022-10-31T17:01:57;12.90;1.00
36322;DHT22;23564;48.290;11.460;2022-10-31T17:04:23;12.90;1.00
36322;DHT22;23564;48.290;11.460;2022-10-31T17:06:49;12.80;1.00
36322;DHT22;23564;48.290;11.460;2022-10-31T17:09:14;12.80;1.00
36322;DHT22;23564;48.290;11.460;2022-10-31T17:11:45;12.70;1.00
36322;DHT22;23564;48.290;11.460;2022-10-31T17:14:11;12.60;1.00
36322;DHT22;23564;48.290;11.460;2022-10-31T17:16:37;12.60;1.00
36322;DHT22;23564;48.290;11.460;2022-10-31T17:19:02;12.50;1.00
36322;DHT22;23564;48.290;11.460;2022-10-31T17:21:28;12.50;1.00
36322;DHT22;23564;48.290;11.460;2022-10-31T17:23:54;12.50;1.00
36322;DHT22;23564;48.290;11.460;2022-10-31T17:26:20;12.40;1.00
36322;DHT22;23564;48.290;11.460;2022-10-31T17:28:46;12.40;1.00
36322;DHT22;23564;48.290;11.460;2022-10-31T17:31:28;12.30;1.00
36322;DHT22;23564;48.290;11.460;2022-10-31T17:33:54;12.30;1.00
36322;DHT22;23564;48.290;11.460;2022-10-31T17:36:21;12.20;1.00
36322;DHT22;23564;48.290;11.460;2022-10-31T17:38:46;12.20;1.00
36322;DHT22;23564;48.290;11.460;2022-10-31T17:41:12;12.10;1.00
36322;DHT22;23564;48.290;11.460;2022-10-31T17:43:37;12.10;1.00
36322;DHT22;23564;48.290;11.460;2022-10-31T17:46:03;12.00;1.00
36322;DHT22;23564;48.290;11.460;2022-10-31T17:48:29;12.00;1.00
36322;DHT22;23564;48.290;11.460;2022-10-31T17:50:58;11.90;1.00
36322;DHT22;23564;48.290;11.460;2022-10-31T17:53:23;12.00;1.00
36322;DHT22;23564;48.290;11.460;2022-10-31T17:55:49;11.90;1.00